createdAt,value
2019-01-30T00:02:15.099Z,4.90
2019-01-30T00:04:44.080Z,6.08
2019-01-30T00:07:13.069Z,5.35
2019-01-30T00:09:42.630Z,5.42
2019-01-30T00:12:11.525Z,5.40
2019-01-30T00:14:40.428Z,6.30
2019-01-30T00:17:09.745Z,4.90
2019-01-30T00:19:38.793Z,6.00
2019-01-30T00:22:07.731Z,5.60
2019-01-30T00:24:36.660Z,5.12
2019-01-30T00:27:05.644Z,5.15
2019-01-30T00:29:34.508Z,4.97
2019-01-30T00:32:03.405Z,5.37
2019-01-30T00:34:32.405Z,5.33
2019-01-30T00:37:01.433Z,4.50
2019-01-30T00:39:30.328Z,5.20
2019-01-30T00:41:59.241Z,4.78
2019-01-30T00:44:28.068Z,5.08
2019-01-30T00:46:56.976Z,5.87
2019-01-30T00:49:25.885Z,5.28
2019-01-30T00:51:54.789Z,4.42
2019-01-30T00:54:31.984Z,5.20
2019-01-30T00:56:54.359Z,5.55
2019-01-30T00:59:23.360Z,4.75
2019-01-30T01:01:52.348Z,5.03
2019-01-30T01:04:21.439Z,4.72
2019-01-30T01:06:50.489Z,5.03
2019-01-30T01:09:19.474Z,4.75
2019-01-30T01:11:48.446Z,5.08
2019-01-30T01:14:17.332Z,4.55
2019-01-30T01:16:46.253Z,4.60
2019-01-30T01:19:15.249Z,5.28
2019-01-30T01:21:44.234Z,4.80
2019-01-30T01:24:13.213Z,4.92
2019-01-30T01:26:42.262Z,4.75
2019-01-30T01:29:11.241Z,5.30
2019-01-30T01:31:40.478Z,4.58
2019-01-30T01:34:09.382Z,5.10
2019-01-30T01:36:38.372Z,5.22
2019-01-30T01:39:08.656Z,4.92
2019-01-30T01:41:37.637Z,5.60
2019-01-30T01:44:06.649Z,4.70
2019-01-30T01:46:35.507Z,5.12
2019-01-30T01:49:05.187Z,5.40
2019-01-30T01:51:34.076Z,4.53
2019-01-30T01:54:03.003Z,5.10
2019-01-30T01:56:31.891Z,5.10
2019-01-30T01:59:01.425Z,4.80
2019-01-30T02:01:30.402Z,4.70
2019-01-30T02:03:59.327Z,3.80
2019-01-30T02:06:28.453Z,4.10
2019-01-30T02:08:57.297Z,4.35
2019-01-30T02:11:26.272Z,4.58
2019-01-30T02:13:55.219Z,4.30
2019-01-30T02:16:25.396Z,4.60
2019-01-30T02:18:54.264Z,4.12
2019-01-30T02:21:24.550Z,4.40
2019-01-30T02:23:53.478Z,4.30
2019-01-30T02:26:22.305Z,4.50
2019-01-30T02:28:51.273Z,3.72
2019-01-30T02:31:20.272Z,3.75
2019-01-30T02:33:49.113Z,4.17
2019-01-30T02:36:18.014Z,3.98
2019-01-30T02:38:46.937Z,4.35
2019-01-30T02:41:15.849Z,4.35
2019-01-30T02:43:44.684Z,5.50
2019-01-30T02:46:13.606Z,4.20
2019-01-30T02:48:42.453Z,4.78
2019-01-30T02:51:11.461Z,4.17
2019-01-30T02:53:40.369Z,5.00
2019-01-30T02:56:09.355Z,4.20
2019-01-30T02:58:38.206Z,4.00
2019-01-30T03:01:07.561Z,4.40
2019-01-30T03:03:36.420Z,4.35
2019-01-30T03:06:05.508Z,4.40
2019-01-30T03:08:34.341Z,4.67
2019-01-30T03:11:03.328Z,4.70
2019-01-30T03:13:32.244Z,4.90
2019-01-30T03:16:01.141Z,4.62
2019-01-30T03:18:30.066Z,5.17
2019-01-30T03:20:58.900Z,4.20
2019-01-30T03:23:27.742Z,4.78
2019-01-30T03:25:56.833Z,5.30
2019-01-30T03:28:25.819Z,4.62
2019-01-30T03:30:54.697Z,4.35
2019-01-30T03:33:23.552Z,4.65
2019-01-30T03:35:52.464Z,4.87
2019-01-30T03:38:21.377Z,4.45
2019-01-30T03:40:50.346Z,4.90
2019-01-30T03:43:19.188Z,4.78
2019-01-30T03:45:48.188Z,5.10
2019-01-30T03:48:17.172Z,5.58
2019-01-30T03:50:46.157Z,5.25
2019-01-30T03:53:18.409Z,5.25
2019-01-30T03:55:47.330Z,5.17
2019-01-30T03:58:16.258Z,4.90
2019-01-30T04:00:45.262Z,5.67
2019-01-30T04:03:14.234Z,5.17
2019-01-30T04:05:43.078Z,6.00
2019-01-30T04:08:11.992Z,5.53
2019-01-30T04:10:40.974Z,5.28
2019-01-30T04:13:09.956Z,5.75
2019-01-30T04:15:38.932Z,5.03
2019-01-30T04:18:07.822Z,5.58
2019-01-30T04:20:36.796Z,5.90
2019-01-30T04:23:05.707Z,5.55
2019-01-30T04:25:34.535Z,5.35
2019-01-30T04:28:05.029Z,5.35
2019-01-30T04:30:33.825Z,6.62
2019-01-30T04:33:02.753Z,5.35
2019-01-30T04:35:31.964Z,5.28
2019-01-30T04:38:01.651Z,5.65
2019-01-30T04:40:30.529Z,6.50
2019-01-30T04:42:59.337Z,5.28
2019-01-30T04:45:28.434Z,5.42
2019-01-30T04:47:57.406Z,6.30
2019-01-30T04:50:26.633Z,6.45
2019-01-30T04:52:55.541Z,5.40
2019-01-30T04:55:24.554Z,5.72
2019-01-30T04:57:53.532Z,5.03
2019-01-30T05:00:23.872Z,6.25
2019-01-30T05:02:52.738Z,5.50
2019-01-30T05:05:21.952Z,5.25
2019-01-30T05:07:50.921Z,4.95
2019-01-30T05:10:19.969Z,6.30
2019-01-30T05:12:48.789Z,6.80
2019-01-30T05:15:19.310Z,5.90
2019-01-30T05:17:48.518Z,5.00
2019-01-30T05:20:18.437Z,5.12
2019-01-30T05:22:53.213Z,5.15
2019-01-30T05:25:22.533Z,6.12
2019-01-30T05:27:51.501Z,5.10
2019-01-30T05:30:25.564Z,5.65
2019-01-30T05:32:54.745Z,5.67
2019-01-30T05:35:23.813Z,5.92
2019-01-30T05:37:52.776Z,5.28
2019-01-30T05:40:21.786Z,5.12
2019-01-30T05:42:50.943Z,6.15
2019-01-30T05:45:19.918Z,5.65
2019-01-30T05:47:48.975Z,6.35
2019-01-30T05:50:18.121Z,10.03
2019-01-30T05:52:52.218Z,7.00
2019-01-30T05:55:38.729Z,7.03
2019-01-30T05:58:07.636Z,6.10
2019-01-30T06:00:41.463Z,6.42
2019-01-30T06:03:12.462Z,7.00
2019-01-30T06:05:42.053Z,7.65
2019-01-30T06:08:13.032Z,7.50
2019-01-30T06:10:49.823Z,7.83
2019-01-30T06:13:18.952Z,9.23
2019-01-30T06:15:47.894Z,9.05
2019-01-30T06:18:16.849Z,9.03
2019-01-30T06:20:45.884Z,7.92
2019-01-30T06:23:17.319Z,7.50
2019-01-30T06:25:46.397Z,8.40
2019-01-30T06:28:15.398Z,8.43
2019-01-30T06:30:46.348Z,10.60
2019-01-30T06:33:22.506Z,7.50
2019-01-30T06:35:57.413Z,7.42
2019-01-30T06:38:26.476Z,8.03
2019-01-30T06:40:57.521Z,8.18
2019-01-30T06:43:29.629Z,7.35
2019-01-30T06:46:00.553Z,8.60
2019-01-30T06:48:29.625Z,7.00
2019-01-30T06:50:58.646Z,7.08
2019-01-30T06:53:33.375Z,6.53
2019-01-30T06:56:02.595Z,6.67
2019-01-30T06:58:31.660Z,8.50
2019-01-30T07:01:00.727Z,5.47
2019-01-30T07:03:31.794Z,5.70
2019-01-30T07:06:02.785Z,5.85
2019-01-30T07:08:31.801Z,6.05
2019-01-30T07:11:17.161Z,5.37
2019-01-30T07:13:54.939Z,5.78
2019-01-30T07:16:23.905Z,6.20
2019-01-30T07:18:55.897Z,5.65
2019-01-30T07:21:39.062Z,5.10
2019-01-30T07:24:08.146Z,5.30
2019-01-30T07:26:39.386Z,5.95
2019-01-30T07:29:08.869Z,6.72
2019-01-30T07:31:37.900Z,7.50
2019-01-30T07:34:06.905Z,8.03
2019-01-30T07:36:35.973Z,7.03
2019-01-30T07:39:09.141Z,7.95
2019-01-30T07:41:40.141Z,7.75
2019-01-30T07:44:09.189Z,7.58
2019-01-30T07:46:38.150Z,7.83
2019-01-30T07:49:07.210Z,7.08
2019-01-30T07:51:36.029Z,8.15
2019-01-30T07:54:05.109Z,6.75
2019-01-30T07:56:33.935Z,7.08
2019-01-30T07:59:02.817Z,8.13
2019-01-30T08:01:32.093Z,8.90
2019-01-30T08:04:00.987Z,8.48
2019-01-30T08:06:29.971Z,9.08
2019-01-30T08:08:58.876Z,9.53
2019-01-30T08:11:27.798Z,8.95
2019-01-30T08:13:56.777Z,8.35
2019-01-30T08:16:25.769Z,8.75
2019-01-30T08:18:54.689Z,9.90
2019-01-30T08:21:23.524Z,8.75
2019-01-30T08:23:52.490Z,8.93
2019-01-30T08:26:21.663Z,8.03
2019-01-30T08:28:50.848Z,8.53
2019-01-30T08:31:20.049Z,7.92
2019-01-30T08:33:49.054Z,7.62
2019-01-30T08:36:18.024Z,7.60
2019-01-30T08:38:49.113Z,7.22
2019-01-30T08:41:19.597Z,7.10
2019-01-30T08:43:54.543Z,4.72
2019-01-30T08:46:27.727Z,4.00
2019-01-30T08:48:58.910Z,3.70
2019-01-30T08:51:27.901Z,3.45
2019-01-30T08:53:56.905Z,3.90
2019-01-30T08:56:27.938Z,4.15
2019-01-30T08:58:56.849Z,3.92
2019-01-30T09:01:36.371Z,3.87
2019-01-30T09:04:05.564Z,3.20
2019-01-30T09:06:34.673Z,3.85
2019-01-30T09:09:08.397Z,3.00
2019-01-30T09:11:38.402Z,3.60
2019-01-30T09:14:08.406Z,3.10
2019-01-30T09:16:37.409Z,3.45
2019-01-30T09:19:06.434Z,3.98
2019-01-30T09:21:42.332Z,3.17
2019-01-30T09:24:11.349Z,3.20
2019-01-30T09:26:40.352Z,2.47
2019-01-30T09:29:09.330Z,2.72
2019-01-30T09:31:38.641Z,2.83
2019-01-30T09:34:07.645Z,3.00
2019-01-30T09:36:37.834Z,2.95
2019-01-30T09:39:09.237Z,3.20
2019-01-30T09:41:38.129Z,2.17
2019-01-30T09:44:07.114Z,2.70
2019-01-30T09:46:36.994Z,2.47
2019-01-30T09:49:09.174Z,2.77
2019-01-30T09:51:38.354Z,2.10
2019-01-30T09:54:08.477Z,2.33
2019-01-30T09:56:40.521Z,2.15
2019-01-30T09:59:09.426Z,2.10
2019-01-30T10:01:41.537Z,2.30
2019-01-30T10:04:10.361Z,1.82
2019-01-30T10:06:39.197Z,2.50
2019-01-30T10:09:09.425Z,1.80
2019-01-30T10:11:38.411Z,1.98
2019-01-30T10:14:07.389Z,1.92
2019-01-30T10:16:36.458Z,2.00
2019-01-30T10:19:05.481Z,1.55
2019-01-30T10:21:36.718Z,2.20
2019-01-30T10:24:05.821Z,2.20
2019-01-30T10:26:34.814Z,1.82
2019-01-30T10:29:03.910Z,1.67
2019-01-30T10:31:32.805Z,1.40
2019-01-30T10:34:01.745Z,1.60
2019-01-30T10:36:30.681Z,1.52
2019-01-30T10:38:59.590Z,1.60
2019-01-30T10:41:28.557Z,1.62
2019-01-30T10:43:57.537Z,1.37
2019-01-30T10:46:26.449Z,1.20
2019-01-30T10:48:56.364Z,1.47
2019-01-30T10:51:32.243Z,1.50
2019-01-30T10:54:04.367Z,1.40
2019-01-30T10:56:33.462Z,1.50
2019-01-30T10:59:04.541Z,1.70
2019-01-30T11:01:33.739Z,1.50
2019-01-30T11:04:02.662Z,1.70
2019-01-30T11:06:32.527Z,1.30
2019-01-30T11:09:01.472Z,1.35
2019-01-30T11:11:30.554Z,1.70
2019-01-30T11:14:01.439Z,1.35
2019-01-30T11:16:30.433Z,1.98
2019-01-30T11:19:01.320Z,1.50
2019-01-30T11:21:31.262Z,1.30
2019-01-30T11:24:00.342Z,1.30
2019-01-30T11:26:29.431Z,1.20
2019-01-30T11:28:58.454Z,1.10
2019-01-30T11:31:31.637Z,1.15
2019-01-30T11:34:07.691Z,0.90
2019-01-30T11:36:34.538Z,1.00
2019-01-30T11:39:05.374Z,0.95
2019-01-30T11:41:34.369Z,0.80
2019-01-30T11:44:04.812Z,0.98
2019-01-30T11:46:33.724Z,0.85
2019-01-30T11:49:02.607Z,0.70
2019-01-30T11:51:31.599Z,0.70
2019-01-30T11:54:06.402Z,0.70
2019-01-30T11:56:35.310Z,0.75
2019-01-30T11:59:04.283Z,0.72
2019-01-30T12:01:33.342Z,0.80
2019-01-30T12:04:02.256Z,0.90
2019-01-30T12:06:31.202Z,1.00
2019-01-30T12:09:00.122Z,0.90
2019-01-30T12:11:29.086Z,1.10
2019-01-30T12:13:57.970Z,1.10
2019-01-30T12:16:26.820Z,1.10
2019-01-30T12:18:55.715Z,1.20
2019-01-30T12:21:24.640Z,0.98
2019-01-30T12:23:53.474Z,0.98
2019-01-30T12:26:22.467Z,2.95
2019-01-30T12:28:51.385Z,0.90
2019-01-30T12:31:20.418Z,0.82
2019-01-30T12:33:49.257Z,0.78
2019-01-30T12:36:18.182Z,0.70
2019-01-30T12:38:47.102Z,0.90
2019-01-30T12:41:16.154Z,0.90
2019-01-30T12:43:45.475Z,0.80
2019-01-30T12:46:14.637Z,1.12
2019-01-30T12:48:43.646Z,0.85
2019-01-30T12:51:12.752Z,0.85
2019-01-30T12:53:41.682Z,1.32
2019-01-30T12:56:10.711Z,1.35
2019-01-30T12:58:39.521Z,1.02
2019-01-30T13:01:09.011Z,1.22
2019-01-30T13:03:37.830Z,1.00
2019-01-30T13:06:06.879Z,1.07
2019-01-30T13:08:55.256Z,0.88
2019-01-30T13:11:24.221Z,0.82
2019-01-30T13:13:54.160Z,0.90
2019-01-30T13:16:32.217Z,0.60
2019-01-30T13:19:02.226Z,0.70
2019-01-30T13:21:31.250Z,1.05
2019-01-30T13:24:01.470Z,0.90
2019-01-30T13:26:31.569Z,0.90
2019-01-30T13:29:00.586Z,1.00
2019-01-30T13:31:29.598Z,0.80
2019-01-30T13:33:58.584Z,0.93
2019-01-30T13:36:27.547Z,0.95
2019-01-30T13:38:56.503Z,1.00
2019-01-30T13:41:28.620Z,0.80
2019-01-30T13:43:57.601Z,0.95
2019-01-30T13:46:26.601Z,0.80
2019-01-30T13:48:55.506Z,0.90
2019-01-30T13:51:24.493Z,0.80
2019-01-30T13:53:53.528Z,0.90
2019-01-30T13:56:28.342Z,0.90
2019-01-30T13:58:58.439Z,1.00
2019-01-30T14:01:28.069Z,0.98
2019-01-30T14:04:11.348Z,1.00
2019-01-30T14:06:40.306Z,1.00
2019-01-30T14:09:15.141Z,0.80
2019-01-30T14:11:59.655Z,0.80
2019-01-30T14:14:47.516Z,0.95
2019-01-30T14:17:32.178Z,0.80
2019-01-30T14:20:07.410Z,0.90
2019-01-30T14:22:38.538Z,0.82
2019-01-30T14:25:08.168Z,0.90
2019-01-30T14:27:38.226Z,1.15
2019-01-30T14:30:11.372Z,1.22
2019-01-30T14:32:40.405Z,1.00
2019-01-30T14:35:11.677Z,1.20
2019-01-30T14:37:41.753Z,0.95
2019-01-30T14:40:12.086Z,1.27
2019-01-30T14:42:41.081Z,1.22
2019-01-30T14:45:12.278Z,1.30
2019-01-30T14:47:41.318Z,1.15
2019-01-30T14:50:21.213Z,1.17
2019-01-30T14:52:50.182Z,1.20
2019-01-30T14:55:19.519Z,1.30
2019-01-30T14:57:51.536Z,1.20
2019-01-30T15:00:28.770Z,1.50
2019-01-30T15:02:58.947Z,1.10
2019-01-30T15:05:28.374Z,1.40
2019-01-30T15:07:57.556Z,1.25
2019-01-30T15:10:26.938Z,1.60
2019-01-30T15:13:08.114Z,1.52
2019-01-30T15:15:40.610Z,1.60
2019-01-30T15:18:09.704Z,1.40
2019-01-30T15:20:39.153Z,1.20
2019-01-30T15:23:09.172Z,1.30
2019-01-30T15:25:38.279Z,1.27
2019-01-30T15:28:08.643Z,1.35
2019-01-30T15:30:43.184Z,1.25
2019-01-30T15:33:18.250Z,1.65
2019-01-30T15:35:47.271Z,1.25
2019-01-30T15:38:20.896Z,1.87
2019-01-30T15:40:50.014Z,1.05
2019-01-30T15:43:24.922Z,1.60
2019-01-30T15:45:53.753Z,1.40
2019-01-30T15:48:25.201Z,1.70
2019-01-30T15:50:54.059Z,1.40
2019-01-30T15:53:32.366Z,1.80
2019-01-30T15:56:02.193Z,2.00
2019-01-30T15:58:36.234Z,1.50
2019-01-30T16:01:09.949Z,2.00
2019-01-30T16:03:50.933Z,1.40
2019-01-30T16:06:20.882Z,1.70
2019-01-30T16:09:08.431Z,1.62
2019-01-30T16:11:56.472Z,1.50
2019-01-30T16:14:25.338Z,1.82
2019-01-30T16:16:54.230Z,1.62
2019-01-30T16:19:23.163Z,1.50
2019-01-30T16:21:52.196Z,1.52
2019-01-30T16:24:21.291Z,1.30
2019-01-30T16:26:50.396Z,1.77
2019-01-30T16:29:26.332Z,1.80
2019-01-30T16:31:57.275Z,1.70
2019-01-30T16:34:26.259Z,2.00
2019-01-30T16:37:03.174Z,1.65
2019-01-30T16:39:37.263Z,1.42
2019-01-30T16:42:06.371Z,1.67
2019-01-30T16:44:35.448Z,1.50
2019-01-30T16:47:04.546Z,1.55
2019-01-30T16:49:33.474Z,1.75
2019-01-30T16:52:09.529Z,1.72
2019-01-30T16:54:38.554Z,1.47
2019-01-30T16:57:07.578Z,1.30
2019-01-30T16:59:38.414Z,1.60
2019-01-30T17:02:07.403Z,1.70
2019-01-30T17:04:38.530Z,1.35
2019-01-30T17:07:11.832Z,1.85
2019-01-30T17:09:43.906Z,1.70
2019-01-30T17:12:15.149Z,1.90
2019-01-30T17:14:43.986Z,1.90
2019-01-30T17:17:12.890Z,1.80
2019-01-30T17:19:41.915Z,2.40
2019-01-30T17:22:10.846Z,1.85
2019-01-30T17:24:39.749Z,1.80
2019-01-30T17:27:08.932Z,2.08
2019-01-30T17:29:37.966Z,2.55
2019-01-30T17:32:06.818Z,2.42
2019-01-30T17:34:35.751Z,2.15
2019-01-30T17:37:04.766Z,2.17
2019-01-30T17:39:35.024Z,1.87
2019-01-30T17:42:04.014Z,2.20
2019-01-30T17:44:33.017Z,1.95
2019-01-30T17:47:02.039Z,2.20
2019-01-30T17:49:44.105Z,1.80
2019-01-30T17:52:16.058Z,1.80
2019-01-30T17:54:47.007Z,2.60
2019-01-30T17:57:17.155Z,1.80
2019-01-30T17:59:46.098Z,1.90
2019-01-30T18:02:15.322Z,2.22
2019-01-30T18:04:44.294Z,2.35
2019-01-30T18:07:15.238Z,1.67
2019-01-30T18:09:45.344Z,1.98
2019-01-30T18:12:14.355Z,1.85
2019-01-30T18:14:43.459Z,2.20
2019-01-30T18:17:13.689Z,1.87
2019-01-30T18:19:45.802Z,2.17
2019-01-30T18:22:14.906Z,2.10
2019-01-30T18:24:43.841Z,1.90
2019-01-30T18:27:14.874Z,1.95
2019-01-30T18:29:43.864Z,2.05
2019-01-30T18:32:13.570Z,2.10
2019-01-30T18:34:42.604Z,2.10
2019-01-30T18:37:11.631Z,2.00
2019-01-30T18:39:56.011Z,1.47
2019-01-30T18:42:50.301Z,2.00
2019-01-30T18:45:28.597Z,2.10
2019-01-30T18:48:05.802Z,2.55
2019-01-30T18:50:35.916Z,2.33
2019-01-30T18:53:05.470Z,1.87
2019-01-30T18:55:36.563Z,2.15
2019-01-30T18:58:13.594Z,2.77
2019-01-30T19:00:45.050Z,2.10
2019-01-30T19:03:23.064Z,2.25
2019-01-30T19:05:52.402Z,2.22
2019-01-30T19:08:28.124Z,2.50
2019-01-30T19:11:05.291Z,2.15
2019-01-30T19:13:34.430Z,2.55
2019-01-30T19:16:14.573Z,2.40
2019-01-30T19:18:43.657Z,2.00
2019-01-30T19:21:18.722Z,2.35
2019-01-30T19:23:47.707Z,2.20
2019-01-30T19:26:16.798Z,1.98
2019-01-30T19:28:53.212Z,2.35
2019-01-30T19:31:23.110Z,2.77
2019-01-30T19:33:53.176Z,2.27
2019-01-30T19:36:22.182Z,2.40
2019-01-30T19:38:54.270Z,2.08
2019-01-30T19:41:27.438Z,2.35
2019-01-30T19:43:57.370Z,2.50
2019-01-30T19:46:27.349Z,1.98
2019-01-30T19:48:57.170Z,2.02
2019-01-30T19:51:26.234Z,2.17
2019-01-30T19:53:57.199Z,2.60
2019-01-30T19:56:28.959Z,2.40
2019-01-30T19:58:57.971Z,2.20
2019-01-30T20:01:36.013Z,1.80
2019-01-30T20:03:57.689Z,1.70
2019-01-30T20:06:26.682Z,2.42
2019-01-30T20:08:55.662Z,2.20
2019-01-30T20:11:24.735Z,1.60
2019-01-30T20:13:53.782Z,2.12
2019-01-30T20:16:38.008Z,1.75
2019-01-30T20:19:10.094Z,2.47
2019-01-30T20:21:44.439Z,1.87
2019-01-30T20:24:13.420Z,2.05
2019-01-30T20:26:52.139Z,2.00
2019-01-30T20:29:21.087Z,1.90
2019-01-30T20:31:51.205Z,3.02
2019-01-30T20:34:20.244Z,2.17
2019-01-30T20:37:26.243Z,2.60
2019-01-30T20:40:02.853Z,1.80
2019-01-30T20:42:32.938Z,2.20
2019-01-30T20:45:01.922Z,2.00
2019-01-30T20:47:30.838Z,2.25
2019-01-30T20:49:59.753Z,2.15
2019-01-30T20:52:28.662Z,2.52
2019-01-30T20:54:59.895Z,2.20
2019-01-30T20:57:28.063Z,2.60
2019-01-30T20:59:57.002Z,2.87
2019-01-30T21:02:25.902Z,2.30
2019-01-30T21:04:54.750Z,2.60
2019-01-30T21:07:23.598Z,3.25
2019-01-30T21:09:52.637Z,2.40
2019-01-30T21:12:24.565Z,2.92
2019-01-30T21:14:53.666Z,2.35
2019-01-30T21:17:31.753Z,2.00
2019-01-30T21:20:01.545Z,2.27
2019-01-30T21:22:30.477Z,2.80
2019-01-30T21:24:59.403Z,2.75
2019-01-30T21:27:28.281Z,2.33
2019-01-30T21:29:59.486Z,2.25
2019-01-30T21:32:30.706Z,2.20
2019-01-30T21:34:59.723Z,2.67
2019-01-30T21:37:31.821Z,2.55
2019-01-30T21:40:07.793Z,3.52
2019-01-30T21:42:38.806Z,2.60
2019-01-30T21:45:18.723Z,2.30
2019-01-30T21:47:47.814Z,2.50
2019-01-30T21:50:17.222Z,3.40
2019-01-30T21:52:46.518Z,2.80
2019-01-30T21:55:23.035Z,2.80
2019-01-30T21:58:03.371Z,2.72
2019-01-30T22:00:38.466Z,2.60
2019-01-30T22:03:13.411Z,2.95
2019-01-30T22:05:42.482Z,2.52
2019-01-30T22:08:18.513Z,2.45
2019-01-30T22:10:56.622Z,2.72
2019-01-30T22:13:38.710Z,2.60
2019-01-30T22:16:07.713Z,2.30
2019-01-30T22:18:42.745Z,2.50
2019-01-30T22:21:17.854Z,2.20
2019-01-30T22:24:05.511Z,1.98
2019-01-30T22:26:32.975Z,2.90
2019-01-30T22:29:02.715Z,2.65
2019-01-30T22:31:39.257Z,2.52
2019-01-30T22:34:09.236Z,2.72
2019-01-30T22:36:50.214Z,2.33
2019-01-30T22:39:19.246Z,2.50
2019-01-30T22:41:48.281Z,2.47
2019-01-30T22:44:17.265Z,2.52
2019-01-30T22:46:46.354Z,2.27
2019-01-30T22:49:15.198Z,2.22
2019-01-30T22:51:51.946Z,2.40
2019-01-30T22:54:21.962Z,2.10
2019-01-30T22:56:50.968Z,2.83
2019-01-30T22:59:21.825Z,2.22
2019-01-30T23:01:57.649Z,2.83
2019-01-30T23:04:47.802Z,2.20
2019-01-30T23:08:02.793Z,2.20
2019-01-30T23:11:07.662Z,1.87
2019-01-30T23:14:15.939Z,2.30
2019-01-30T23:17:27.171Z,2.15
2019-01-30T23:20:22.751Z,2.20
2019-01-30T23:23:34.142Z,2.60
2019-01-30T23:26:33.438Z,2.50
2019-01-30T23:29:40.890Z,2.10
2019-01-30T23:32:19.369Z,2.47
2019-01-30T23:35:26.781Z,2.20
2019-01-30T23:38:36.855Z,2.30
2019-01-30T23:41:41.862Z,2.75
2019-01-30T23:44:38.749Z,2.20
2019-01-30T23:47:40.190Z,2.37
2019-01-30T23:51:01.676Z,2.55
2019-01-30T23:53:53.345Z,1.92
2019-01-30T23:56:54.082Z,2.20
